sensor_id;sensor_type;location;lat;lon;timestamp;P1;durP1;ratioP1;P2;durP2;ratioP2
29412;SDS011;16389;50.126;8.450;2024-01-30T00:01:25;29.60;;;19.08;;
29412;SDS011;16389;50.126;8.450;2024-01-30T00:03:50;26.00;;;19.08;;
29412;SDS011;16389;50.126;8.450;2024-01-30T00:06:19;27.55;;;20.00;;
29412;SDS011;16389;50.126;8.450;2024-01-30T00:08:48;31.75;;;19.70;;
29412;SDS011;16389;50.126;8.450;2024-01-30T00:11:15;26.35;;;19.40;;
29412;SDS011;16389;50.126;8.450;2024-01-30T00:13:41;33.92;;;20.30;;
29412;SDS011;16389;50.126;8.450;2024-01-30T00:16:07;40.13;;;19.67;;
29412;SDS011;16389;50.126;8.450;2024-01-30T00:18:34;26.60;;;17.98;;
29412;SDS011;16389;50.126;8.450;2024-01-30T00:21:01;30.08;;;18.92;;
29412;SDS011;16389;50.126;8.450;2024-01-30T00:23:26;30.42;;;17.98;;
29412;SDS011;16389;50.126;8.450;2024-01-30T00:25:52;24.00;;;17.55;;
29412;SDS011;16389;50.126;8.450;2024-01-30T00:28:18;27.15;;;18.55;;
29412;SDS011;16389;50.126;8.450;2024-01-30T00:30:44;26.60;;;19.05;;
29412;SDS011;16389;50.126;8.450;2024-01-30T00:33:09;27.23;;;19.55;;
29412;SDS011;16389;50.126;8.450;2024-01-30T00:35:35;24.95;;;17.75;;
29412;SDS011;16389;50.126;8.450;2024-01-30T00:38:01;26.67;;;17.83;;
29412;SDS011;16389;50.126;8.450;2024-01-30T00:40:27;25.88;;;18.67;;
29412;SDS011;16389;50.126;8.450;2024-01-30T00:42:52;27.90;;;18.20;;
29412;SDS011;16389;50.126;8.450;2024-01-30T00:45:18;27.77;;;18.67;;
29412;SDS011;16389;50.126;8.450;2024-01-30T00:47:44;25.73;;;17.90;;
29412;SDS011;16389;50.126;8.450;2024-01-30T00:50:09;30.80;;;18.92;;
29412;SDS011;16389;50.126;8.450;2024-01-30T00:52:36;31.20;;;19.35;;
29412;SDS011;16389;50.126;8.450;2024-01-30T00:55:02;26.35;;;19.05;;
29412;SDS011;16389;50.126;8.450;2024-01-30T00:57:28;31.33;;;18.90;;
29412;SDS011;16389;50.126;8.450;2024-01-30T00:59:54;27.85;;;19.05;;
29412;SDS011;16389;50.126;8.450;2024-01-30T01:02:20;28.10;;;18.50;;
29412;SDS011;16389;50.126;8.450;2024-01-30T01:04:45;24.27;;;19.05;;
29412;SDS011;16389;50.126;8.450;2024-01-30T01:07:11;28.23;;;18.65;;
29412;SDS011;16389;50.126;8.450;2024-01-30T01:09:40;26.13;;;18.52;;
29412;SDS011;16389;50.126;8.450;2024-01-30T01:12:05;24.77;;;18.77;;
29412;SDS011;16389;50.126;8.450;2024-01-30T01:14:31;27.90;;;18.40;;
29412;SDS011;16389;50.126;8.450;2024-01-30T01:16:57;30.17;;;19.80;;
29412;SDS011;16389;50.126;8.450;2024-01-30T01:19:23;30.70;;;19.95;;
29412;SDS011;16389;50.126;8.450;2024-01-30T01:21:49;36.63;;;20.05;;
29412;SDS011;16389;50.126;8.450;2024-01-30T01:24:14;32.80;;;21.92;;
29412;SDS011;16389;50.126;8.450;2024-01-30T01:26:40;27.38;;;19.85;;
29412;SDS011;16389;50.126;8.450;2024-01-30T01:29:06;29.50;;;20.17;;
29412;SDS011;16389;50.126;8.450;2024-01-30T01:31:37;28.80;;;20.52;;
29412;SDS011;16389;50.126;8.450;2024-01-30T01:34:08;34.33;;;21.25;;
29412;SDS011;16389;50.126;8.450;2024-01-30T01:36:37;27.65;;;19.35;;
29412;SDS011;16389;50.126;8.450;2024-01-30T01:39:03;31.10;;;19.25;;
29412;SDS011;16389;50.126;8.450;2024-01-30T01:41:30;34.25;;;20.27;;
29412;SDS011;16389;50.126;8.450;2024-01-30T01:43:56;26.50;;;19.08;;
29412;SDS011;16389;50.126;8.450;2024-01-30T01:46:22;31.30;;;20.20;;
29412;SDS011;16389;50.126;8.450;2024-01-30T01:48:49;35.28;;;20.60;;
29412;SDS011;16389;50.126;8.450;2024-01-30T01:51:15;30.27;;;18.67;;
29412;SDS011;16389;50.126;8.450;2024-01-30T01:53:41;30.90;;;19.98;;
29412;SDS011;16389;50.126;8.450;2024-01-30T01:56:07;32.67;;;20.05;;
29412;SDS011;16389;50.126;8.450;2024-01-30T01:58:33;34.83;;;18.73;;
29412;SDS011;16389;50.126;8.450;2024-01-30T02:01:00;32.58;;;19.02;;
29412;SDS011;16389;50.126;8.450;2024-01-30T02:03:27;37.75;;;23.05;;
29412;SDS011;16389;50.126;8.450;2024-01-30T02:05:52;34.25;;;20.77;;
29412;SDS011;16389;50.126;8.450;2024-01-30T02:08:20;29.73;;;18.92;;
29412;SDS011;16389;50.126;8.450;2024-01-30T02:10:46;26.17;;;18.70;;
29412;SDS011;16389;50.126;8.450;2024-01-30T02:13:11;31.42;;;19.83;;
29412;SDS011;16389;50.126;8.450;2024-01-30T02:15:37;26.27;;;19.90;;
29412;SDS011;16389;50.126;8.450;2024-01-30T02:18:03;32.53;;;20.00;;
29412;SDS011;16389;50.126;8.450;2024-01-30T02:20:29;31.25;;;20.73;;
29412;SDS011;16389;50.126;8.450;2024-01-30T02:22:56;26.00;;;19.30;;
29412;SDS011;16389;50.126;8.450;2024-01-30T02:25:38;35.08;;;19.80;;
29412;SDS011;16389;50.126;8.450;2024-01-30T02:28:12;30.40;;;20.70;;
29412;SDS011;16389;50.126;8.450;2024-01-30T02:30:47;34.33;;;21.17;;
29412;SDS011;16389;50.126;8.450;2024-01-30T02:33:13;29.73;;;20.42;;
29412;SDS011;16389;50.126;8.450;2024-01-30T02:35:39;26.52;;;20.13;;
29412;SDS011;16389;50.126;8.450;2024-01-30T02:38:04;32.90;;;20.17;;
29412;SDS011;16389;50.126;8.450;2024-01-30T02:40:30;31.35;;;20.65;;
29412;SDS011;16389;50.126;8.450;2024-01-30T02:42:57;33.25;;;19.90;;
29412;SDS011;16389;50.126;8.450;2024-01-30T02:45:24;34.22;;;20.42;;
29412;SDS011;16389;50.126;8.450;2024-01-30T02:47:49;32.83;;;21.52;;
29412;SDS011;16389;50.126;8.450;2024-01-30T02:50:15;30.40;;;20.40;;
29412;SDS011;16389;50.126;8.450;2024-01-30T02:52:41;31.23;;;19.83;;
29412;SDS011;16389;50.126;8.450;2024-01-30T02:55:09;30.00;;;20.48;;
29412;SDS011;16389;50.126;8.450;2024-01-30T02:57:35;30.88;;;20.58;;
29412;SDS011;16389;50.126;8.450;2024-01-30T03:00:01;34.63;;;21.00;;
29412;SDS011;16389;50.126;8.450;2024-01-30T03:02:28;36.58;;;22.50;;
29412;SDS011;16389;50.126;8.450;2024-01-30T03:04:54;33.97;;;21.65;;
29412;SDS011;16389;50.126;8.450;2024-01-30T03:07:19;41.22;;;21.30;;
29412;SDS011;16389;50.126;8.450;2024-01-30T03:09:45;28.88;;;19.98;;
29412;SDS011;16389;50.126;8.450;2024-01-30T03:12:11;38.70;;;22.95;;
29412;SDS011;16389;50.126;8.450;2024-01-30T03:14:37;45.95;;;24.02;;
29412;SDS011;16389;50.126;8.450;2024-01-30T03:17:03;37.40;;;22.45;;
29412;SDS011;16389;50.126;8.450;2024-01-30T03:19:28;29.20;;;21.67;;
29412;SDS011;16389;50.126;8.450;2024-01-30T03:21:54;34.40;;;21.92;;
29412;SDS011;16389;50.126;8.450;2024-01-30T03:24:20;36.97;;;22.13;;
29412;SDS011;16389;50.126;8.450;2024-01-30T03:26:46;38.72;;;22.30;;
29412;SDS011;16389;50.126;8.450;2024-01-30T03:29:11;36.58;;;21.65;;
29412;SDS011;16389;50.126;8.450;2024-01-30T03:31:37;30.73;;;21.63;;
29412;SDS011;16389;50.126;8.450;2024-01-30T03:34:03;34.85;;;20.90;;
29412;SDS011;16389;50.126;8.450;2024-01-30T03:36:29;38.60;;;23.02;;
29412;SDS011;16389;50.126;8.450;2024-01-30T03:38:57;34.95;;;22.02;;
29412;SDS011;16389;50.126;8.450;2024-01-30T03:41:23;35.72;;;22.10;;
29412;SDS011;16389;50.126;8.450;2024-01-30T03:43:49;34.88;;;21.90;;
29412;SDS011;16389;50.126;8.450;2024-01-30T03:46:15;40.40;;;23.52;;
29412;SDS011;16389;50.126;8.450;2024-01-30T03:48:40;43.97;;;24.92;;
29412;SDS011;16389;50.126;8.450;2024-01-30T03:51:06;44.15;;;24.52;;
29412;SDS011;16389;50.126;8.450;2024-01-30T03:53:32;46.90;;;24.98;;
29412;SDS011;16389;50.126;8.450;2024-01-30T03:55:58;37.00;;;23.73;;
29412;SDS011;16389;50.126;8.450;2024-01-30T03:58:23;41.22;;;24.40;;
29412;SDS011;16389;50.126;8.450;2024-01-30T04:00:49;40.95;;;23.50;;
29412;SDS011;16389;50.126;8.450;2024-01-30T04:03:15;42.17;;;22.65;;
29412;SDS011;16389;50.126;8.450;2024-01-30T04:05:40;40.50;;;23.60;;
29412;SDS011;16389;50.126;8.450;2024-01-30T04:08:06;35.78;;;22.70;;
29412;SDS011;16389;50.126;8.450;2024-01-30T04:10:32;37.78;;;23.50;;
29412;SDS011;16389;50.126;8.450;2024-01-30T04:12:58;40.60;;;23.77;;
29412;SDS011;16389;50.126;8.450;2024-01-30T04:15:24;37.17;;;23.73;;
29412;SDS011;16389;50.126;8.450;2024-01-30T04:17:50;40.42;;;23.52;;
29412;SDS011;16389;50.126;8.450;2024-01-30T04:20:16;44.75;;;23.85;;
29412;SDS011;16389;50.126;8.450;2024-01-30T04:22:45;45.30;;;25.27;;
29412;SDS011;16389;50.126;8.450;2024-01-30T04:25:11;40.38;;;24.35;;
29412;SDS011;16389;50.126;8.450;2024-01-30T04:27:38;46.03;;;24.95;;
29412;SDS011;16389;50.126;8.450;2024-01-30T04:30:04;37.97;;;23.20;;
29412;SDS011;16389;50.126;8.450;2024-01-30T04:32:30;37.75;;;22.30;;
29412;SDS011;16389;50.126;8.450;2024-01-30T04:34:55;34.95;;;21.38;;
29412;SDS011;16389;50.126;8.450;2024-01-30T04:37:21;41.63;;;22.25;;
29412;SDS011;16389;50.126;8.450;2024-01-30T04:39:47;34.10;;;22.23;;
29412;SDS011;16389;50.126;8.450;2024-01-30T04:42:12;43.83;;;23.30;;
29412;SDS011;16389;50.126;8.450;2024-01-30T04:44:38;40.17;;;22.77;;
29412;SDS011;16389;50.126;8.450;2024-01-30T04:47:03;37.85;;;21.50;;
29412;SDS011;16389;50.126;8.450;2024-01-30T04:49:31;40.30;;;23.90;;
29412;SDS011;16389;50.126;8.450;2024-01-30T04:51:56;42.35;;;25.67;;
29412;SDS011;16389;50.126;8.450;2024-01-30T04:54:22;41.60;;;24.85;;
29412;SDS011;16389;50.126;8.450;2024-01-30T04:56:48;46.35;;;25.92;;
29412;SDS011;16389;50.126;8.450;2024-01-30T04:59:14;39.60;;;23.58;;
29412;SDS011;16389;50.126;8.450;2024-01-30T05:01:39;41.28;;;22.65;;
29412;SDS011;16389;50.126;8.450;2024-01-30T05:04:07;39.75;;;23.83;;
29412;SDS011;16389;50.126;8.450;2024-01-30T05:06:33;37.85;;;23.65;;
29412;SDS011;16389;50.126;8.450;2024-01-30T05:08:59;41.45;;;24.58;;
29412;SDS011;16389;50.126;8.450;2024-01-30T05:11:25;45.22;;;23.70;;
29412;SDS011;16389;50.126;8.450;2024-01-30T05:13:50;47.45;;;24.60;;
29412;SDS011;16389;50.126;8.450;2024-01-30T05:16:16;49.15;;;24.35;;
29412;SDS011;16389;50.126;8.450;2024-01-30T05:18:41;36.03;;;22.67;;
29412;SDS011;16389;50.126;8.450;2024-01-30T05:21:07;36.22;;;23.70;;
29412;SDS011;16389;50.126;8.450;2024-01-30T05:23:33;40.63;;;21.95;;
29412;SDS011;16389;50.126;8.450;2024-01-30T05:25:59;39.88;;;23.20;;
29412;SDS011;16389;50.126;8.450;2024-01-30T05:28:26;37.35;;;22.05;;
29412;SDS011;16389;50.126;8.450;2024-01-30T05:30:51;39.58;;;22.85;;
29412;SDS011;16389;50.126;8.450;2024-01-30T05:33:17;46.60;;;23.23;;
29412;SDS011;16389;50.126;8.450;2024-01-30T05:35:43;39.33;;;22.00;;
29412;SDS011;16389;50.126;8.450;2024-01-30T05:38:08;42.53;;;23.13;;
29412;SDS011;16389;50.126;8.450;2024-01-30T05:40:34;36.47;;;22.20;;
29412;SDS011;16389;50.126;8.450;2024-01-30T05:42:59;40.28;;;22.38;;
29412;SDS011;16389;50.126;8.450;2024-01-30T05:45:27;41.83;;;23.48;;
29412;SDS011;16389;50.126;8.450;2024-01-30T05:47:53;43.03;;;23.85;;
29412;SDS011;16389;50.126;8.450;2024-01-30T05:50:19;45.53;;;23.23;;
29412;SDS011;16389;50.126;8.450;2024-01-30T05:52:45;37.33;;;22.52;;
29412;SDS011;16389;50.126;8.450;2024-01-30T05:55:11;41.90;;;23.08;;
29412;SDS011;16389;50.126;8.450;2024-01-30T05:57:37;45.83;;;23.00;;
29412;SDS011;16389;50.126;8.450;2024-01-30T06:00:04;43.35;;;23.77;;
29412;SDS011;16389;50.126;8.450;2024-01-30T06:02:30;38.47;;;23.20;;
29412;SDS011;16389;50.126;8.450;2024-01-30T06:04:56;44.28;;;24.85;;
29412;SDS011;16389;50.126;8.450;2024-01-30T06:07:23;43.38;;;23.90;;
29412;SDS011;16389;50.126;8.450;2024-01-30T06:09:49;50.05;;;26.73;;
29412;SDS011;16389;50.126;8.450;2024-01-30T06:12:14;39.90;;;23.67;;
29412;SDS011;16389;50.126;8.450;2024-01-30T06:14:40;39.55;;;24.60;;
29412;SDS011;16389;50.126;8.450;2024-01-30T06:17:07;46.17;;;23.90;;
29412;SDS011;16389;50.126;8.450;2024-01-30T06:19:33;43.25;;;23.50;;
29412;SDS011;16389;50.126;8.450;2024-01-30T06:22:00;49.30;;;25.27;;
29412;SDS011;16389;50.126;8.450;2024-01-30T06:24:26;39.47;;;22.88;;
29412;SDS011;16389;50.126;8.450;2024-01-30T06:26:52;37.45;;;22.42;;
29412;SDS011;16389;50.126;8.450;2024-01-30T06:29:18;40.80;;;23.50;;
29412;SDS011;16389;50.126;8.450;2024-01-30T06:31:44;39.78;;;22.55;;
29412;SDS011;16389;50.126;8.450;2024-01-30T06:34:10;41.20;;;23.25;;
29412;SDS011;16389;50.126;8.450;2024-01-30T06:36:37;48.10;;;23.67;;
29412;SDS011;16389;50.126;8.450;2024-01-30T06:39:02;46.05;;;23.48;;
29412;SDS011;16389;50.126;8.450;2024-01-30T06:41:29;42.33;;;23.55;;
29412;SDS011;16389;50.126;8.450;2024-01-30T06:43:55;40.67;;;23.42;;
29412;SDS011;16389;50.126;8.450;2024-01-30T06:46:21;43.92;;;24.33;;
29412;SDS011;16389;50.126;8.450;2024-01-30T06:48:46;46.80;;;25.38;;
29412;SDS011;16389;50.126;8.450;2024-01-30T06:51:12;41.78;;;24.02;;
29412;SDS011;16389;50.126;8.450;2024-01-30T06:53:38;46.10;;;25.20;;
29412;SDS011;16389;50.126;8.450;2024-01-30T06:56:03;45.28;;;26.02;;
29412;SDS011;16389;50.126;8.450;2024-01-30T06:58:30;42.63;;;25.10;;
29412;SDS011;16389;50.126;8.450;2024-01-30T07:00:56;45.63;;;25.33;;
29412;SDS011;16389;50.126;8.450;2024-01-30T07:03:21;48.83;;;25.20;;
29412;SDS011;16389;50.126;8.450;2024-01-30T07:05:47;43.78;;;25.80;;
29412;SDS011;16389;50.126;8.450;2024-01-30T07:08:14;48.60;;;26.83;;
29412;SDS011;16389;50.126;8.450;2024-01-30T07:10:42;53.42;;;25.80;;
29412;SDS011;16389;50.126;8.450;2024-01-30T07:13:08;58.03;;;25.73;;
29412;SDS011;16389;50.126;8.450;2024-01-30T07:15:35;54.45;;;25.65;;
29412;SDS011;16389;50.126;8.450;2024-01-30T07:18:01;43.00;;;24.60;;
29412;SDS011;16389;50.126;8.450;2024-01-30T07:20:27;49.25;;;24.70;;
29412;SDS011;16389;50.126;8.450;2024-01-30T07:22:56;40.05;;;24.38;;
29412;SDS011;16389;50.126;8.450;2024-01-30T07:25:21;41.20;;;23.23;;
29412;SDS011;16389;50.126;8.450;2024-01-30T07:27:51;51.53;;;25.05;;
29412;SDS011;16389;50.126;8.450;2024-01-30T07:30:17;48.72;;;25.70;;
29412;SDS011;16389;50.126;8.450;2024-01-30T07:32:43;41.60;;;24.80;;
29412;SDS011;16389;50.126;8.450;2024-01-30T07:35:09;56.75;;;25.45;;
29412;SDS011;16389;50.126;8.450;2024-01-30T07:37:36;50.53;;;24.50;;
29412;SDS011;16389;50.126;8.450;2024-01-30T07:40:02;42.42;;;24.88;;
29412;SDS011;16389;50.126;8.450;2024-01-30T07:42:28;42.63;;;23.52;;
29412;SDS011;16389;50.126;8.450;2024-01-30T07:44:54;45.42;;;25.23;;
29412;SDS011;16389;50.126;8.450;2024-01-30T07:47:19;41.88;;;23.42;;
29412;SDS011;16389;50.126;8.450;2024-01-30T07:49:46;42.95;;;23.98;;
29412;SDS011;16389;50.126;8.450;2024-01-30T07:52:12;42.72;;;24.13;;
29412;SDS011;16389;50.126;8.450;2024-01-30T07:54:38;43.25;;;24.98;;
29412;SDS011;16389;50.126;8.450;2024-01-30T07:57:04;43.97;;;23.80;;
29412;SDS011;16389;50.126;8.450;2024-01-30T07:59:30;41.17;;;24.95;;
29412;SDS011;16389;50.126;8.450;2024-01-30T08:01:55;40.25;;;23.35;;
29412;SDS011;16389;50.126;8.450;2024-01-30T08:04:21;40.05;;;25.27;;
29412;SDS011;16389;50.126;8.450;2024-01-30T08:06:47;45.65;;;25.88;;
29412;SDS011;16389;50.126;8.450;2024-01-30T08:09:12;47.03;;;26.42;;
29412;SDS011;16389;50.126;8.450;2024-01-30T08:11:39;44.17;;;25.30;;
29412;SDS011;16389;50.126;8.450;2024-01-30T08:14:05;47.40;;;25.25;;
29412;SDS011;16389;50.126;8.450;2024-01-30T08:16:31;51.75;;;26.92;;
29412;SDS011;16389;50.126;8.450;2024-01-30T08:18:56;44.20;;;26.20;;
29412;SDS011;16389;50.126;8.450;2024-01-30T08:21:22;45.97;;;28.30;;
29412;SDS011;16389;50.126;8.450;2024-01-30T08:23:48;60.03;;;32.58;;
29412;SDS011;16389;50.126;8.450;2024-01-30T08:26:14;45.22;;;28.17;;
29412;SDS011;16389;50.126;8.450;2024-01-30T08:28:39;49.10;;;26.98;;
29412;SDS011;16389;50.126;8.450;2024-01-30T08:31:05;39.42;;;26.63;;
29412;SDS011;16389;50.126;8.450;2024-01-30T08:33:30;48.00;;;28.65;;
29412;SDS011;16389;50.126;8.450;2024-01-30T08:35:56;46.45;;;27.70;;
29412;SDS011;16389;50.126;8.450;2024-01-30T08:38:22;38.50;;;26.55;;
29412;SDS011;16389;50.126;8.450;2024-01-30T08:40:48;39.22;;;26.60;;
29412;SDS011;16389;50.126;8.450;2024-01-30T08:43:14;39.28;;;26.75;;
29412;SDS011;16389;50.126;8.450;2024-01-30T08:45:40;34.33;;;25.42;;
29412;SDS011;16389;50.126;8.450;2024-01-30T08:48:07;36.78;;;24.80;;
29412;SDS011;16389;50.126;8.450;2024-01-30T08:50:33;34.22;;;25.83;;
29412;SDS011;16389;50.126;8.450;2024-01-30T08:52:59;40.72;;;24.15;;
29412;SDS011;16389;50.126;8.450;2024-01-30T08:55:25;26.63;;;21.73;;
29412;SDS011;16389;50.126;8.450;2024-01-30T08:57:50;31.13;;;23.00;;
29412;SDS011;16389;50.126;8.450;2024-01-30T09:00:17;33.17;;;22.90;;
29412;SDS011;16389;50.126;8.450;2024-01-30T09:02:42;37.72;;;25.60;;
29412;SDS011;16389;50.126;8.450;2024-01-30T09:05:08;33.17;;;24.65;;
29412;SDS011;16389;50.126;8.450;2024-01-30T09:07:34;45.40;;;28.65;;
29412;SDS011;16389;50.126;8.450;2024-01-30T09:10:00;52.15;;;31.77;;
29412;SDS011;16389;50.126;8.450;2024-01-30T09:12:26;39.92;;;26.27;;
29412;SDS011;16389;50.126;8.450;2024-01-30T09:14:51;38.65;;;28.02;;
29412;SDS011;16389;50.126;8.450;2024-01-30T09:17:17;36.25;;;25.52;;
29412;SDS011;16389;50.126;8.450;2024-01-30T09:19:43;40.58;;;26.20;;
29412;SDS011;16389;50.126;8.450;2024-01-30T09:22:10;33.47;;;25.52;;
29412;SDS011;16389;50.126;8.450;2024-01-30T09:24:36;33.00;;;24.33;;
29412;SDS011;16389;50.126;8.450;2024-01-30T09:27:02;29.48;;;23.63;;
29412;SDS011;16389;50.126;8.450;2024-01-30T09:29:27;27.20;;;22.83;;
29412;SDS011;16389;50.126;8.450;2024-01-30T09:31:53;31.67;;;23.73;;
29412;SDS011;16389;50.126;8.450;2024-01-30T09:34:19;29.92;;;22.60;;
29412;SDS011;16389;50.126;8.450;2024-01-30T09:36:45;33.00;;;23.60;;
29412;SDS011;16389;50.126;8.450;2024-01-30T09:39:11;27.42;;;21.58;;
29412;SDS011;16389;50.126;8.450;2024-01-30T09:41:40;36.20;;;25.52;;
29412;SDS011;16389;50.126;8.450;2024-01-30T09:44:17;49.63;;;29.23;;
29412;SDS011;16389;50.126;8.450;2024-01-30T09:46:46;32.13;;;24.60;;
29412;SDS011;16389;50.126;8.450;2024-01-30T09:49:15;28.77;;;21.13;;
29412;SDS011;16389;50.126;8.450;2024-01-30T09:51:43;31.55;;;22.35;;
29412;SDS011;16389;50.126;8.450;2024-01-30T09:54:10;30.65;;;21.05;;
29412;SDS011;16389;50.126;8.450;2024-01-30T09:56:38;24.25;;;20.42;;
29412;SDS011;16389;50.126;8.450;2024-01-30T09:59:04;24.02;;;19.67;;
29412;SDS011;16389;50.126;8.450;2024-01-30T10:01:30;32.80;;;20.27;;
29412;SDS011;16389;50.126;8.450;2024-01-30T10:03:56;29.65;;;22.17;;
29412;SDS011;16389;50.126;8.450;2024-01-30T10:06:22;23.38;;;19.05;;
29412;SDS011;16389;50.126;8.450;2024-01-30T10:08:50;33.17;;;22.50;;
29412;SDS011;16389;50.126;8.450;2024-01-30T10:11:18;57.17;;;30.42;;
29412;SDS011;16389;50.126;8.450;2024-01-30T10:13:44;68.22;;;34.50;;
29412;SDS011;16389;50.126;8.450;2024-01-30T10:16:13;63.22;;;34.50;;
29412;SDS011;16389;50.126;8.450;2024-01-30T10:18:40;42.40;;;30.42;;
29412;SDS011;16389;50.126;8.450;2024-01-30T10:21:07;35.97;;;24.25;;
29412;SDS011;16389;50.126;8.450;2024-01-30T10:23:36;37.78;;;25.15;;
29412;SDS011;16389;50.126;8.450;2024-01-30T10:26:03;46.70;;;27.05;;
29412;SDS011;16389;50.126;8.450;2024-01-30T10:28:29;33.35;;;22.00;;
29412;SDS011;16389;50.126;8.450;2024-01-30T10:30:58;31.10;;;22.52;;
29412;SDS011;16389;50.126;8.450;2024-01-30T10:33:25;51.88;;;28.17;;
29412;SDS011;16389;50.126;8.450;2024-01-30T10:35:53;26.88;;;21.25;;
29412;SDS011;16389;50.126;8.450;2024-01-30T10:38:25;41.05;;;23.00;;
29412;SDS011;16389;50.126;8.450;2024-01-30T10:40:53;28.77;;;21.67;;
29412;SDS011;16389;50.126;8.450;2024-01-30T10:43:29;30.63;;;23.05;;
29412;SDS011;16389;50.126;8.450;2024-01-30T10:45:59;34.20;;;22.38;;
29412;SDS011;16389;50.126;8.450;2024-01-30T10:48:42;21.38;;;17.90;;
29412;SDS011;16389;50.126;8.450;2024-01-30T10:51:12;25.95;;;20.00;;
29412;SDS011;16389;50.126;8.450;2024-01-30T10:53:39;21.27;;;19.00;;
29412;SDS011;16389;50.126;8.450;2024-01-30T10:56:05;23.30;;;19.80;;
29412;SDS011;16389;50.126;8.450;2024-01-30T10:58:31;28.95;;;20.05;;
29412;SDS011;16389;50.126;8.450;2024-01-30T11:00:57;25.85;;;19.58;;
29412;SDS011;16389;50.126;8.450;2024-01-30T11:03:24;30.20;;;22.40;;
29412;SDS011;16389;50.126;8.450;2024-01-30T11:05:50;23.33;;;19.20;;
29412;SDS011;16389;50.126;8.450;2024-01-30T11:08:26;22.67;;;18.02;;
29412;SDS011;16389;50.126;8.450;2024-01-30T11:10:58;22.50;;;18.48;;
29412;SDS011;16389;50.126;8.450;2024-01-30T11:13:30;23.67;;;19.42;;
29412;SDS011;16389;50.126;8.450;2024-01-30T11:16:03;23.40;;;17.77;;
29412;SDS011;16389;50.126;8.450;2024-01-30T11:18:30;25.63;;;20.00;;
29412;SDS011;16389;50.126;8.450;2024-01-30T11:20:57;24.38;;;18.27;;
29412;SDS011;16389;50.126;8.450;2024-01-30T11:23:23;23.60;;;18.08;;
29412;SDS011;16389;50.126;8.450;2024-01-30T11:25:52;24.60;;;19.38;;
29412;SDS011;16389;50.126;8.450;2024-01-30T11:28:18;21.63;;;19.20;;
29412;SDS011;16389;50.126;8.450;2024-01-30T11:30:45;22.05;;;19.17;;
29412;SDS011;16389;50.126;8.450;2024-01-30T11:33:13;21.92;;;18.58;;
29412;SDS011;16389;50.126;8.450;2024-01-30T11:35:43;20.95;;;18.75;;
29412;SDS011;16389;50.126;8.450;2024-01-30T11:40:37;20.67;;;18.52;;
29412;SDS011;16389;50.126;8.450;2024-01-30T11:43:03;18.88;;;16.83;;
29412;SDS011;16389;50.126;8.450;2024-01-30T11:45:31;21.60;;;19.30;;
29412;SDS011;16389;50.126;8.450;2024-01-30T11:47:58;21.17;;;19.05;;
29412;SDS011;16389;50.126;8.450;2024-01-30T11:50:28;20.73;;;18.15;;
29412;SDS011;16389;50.126;8.450;2024-01-30T11:52:55;20.10;;;17.75;;
29412;SDS011;16389;50.126;8.450;2024-01-30T11:55:21;21.20;;;18.77;;
29412;SDS011;16389;50.126;8.450;2024-01-30T11:57:48;20.00;;;18.02;;
29412;SDS011;16389;50.126;8.450;2024-01-30T12:00:14;20.35;;;17.73;;
29412;SDS011;16389;50.126;8.450;2024-01-30T12:02:40;19.88;;;17.90;;
29412;SDS011;16389;50.126;8.450;2024-01-30T12:05:06;19.88;;;17.85;;
29412;SDS011;16389;50.126;8.450;2024-01-30T12:07:33;20.10;;;18.10;;
29412;SDS011;16389;50.126;8.450;2024-01-30T12:09:59;19.70;;;17.65;;
29412;SDS011;16389;50.126;8.450;2024-01-30T12:12:25;19.55;;;17.40;;
29412;SDS011;16389;50.126;8.450;2024-01-30T12:14:52;22.42;;;17.73;;
29412;SDS011;16389;50.126;8.450;2024-01-30T12:22:29;19.00;;;17.15;;
29412;SDS011;16389;50.126;8.450;2024-01-30T12:24:55;23.25;;;20.00;;
29412;SDS011;16389;50.126;8.450;2024-01-30T12:27:21;28.38;;;21.17;;
29412;SDS011;16389;50.126;8.450;2024-01-30T12:29:46;23.20;;;19.35;;
29412;SDS011;16389;50.126;8.450;2024-01-30T12:32:15;16.85;;;15.20;;
29412;SDS011;16389;50.126;8.450;2024-01-30T12:34:42;18.48;;;16.75;;
29412;SDS011;16389;50.126;8.450;2024-01-30T12:37:07;18.85;;;16.85;;
29412;SDS011;16389;50.126;8.450;2024-01-30T12:39:34;31.90;;;22.52;;
29412;SDS011;16389;50.126;8.450;2024-01-30T12:42:00;24.13;;;17.92;;
29412;SDS011;16389;50.126;8.450;2024-01-30T12:44:26;18.10;;;16.23;;
29412;SDS011;16389;50.126;8.450;2024-01-30T12:46:52;17.80;;;16.23;;
29412;SDS011;16389;50.126;8.450;2024-01-30T12:49:19;19.40;;;17.42;;
29412;SDS011;16389;50.126;8.450;2024-01-30T12:51:46;43.58;;;26.30;;
29412;SDS011;16389;50.126;8.450;2024-01-30T12:54:12;26.60;;;18.45;;
29412;SDS011;16389;50.126;8.450;2024-01-30T12:56:38;18.85;;;16.13;;
29412;SDS011;16389;50.126;8.450;2024-01-30T12:59:03;19.17;;;17.23;;
29412;SDS011;16389;50.126;8.450;2024-01-30T13:01:29;33.33;;;24.00;;
29412;SDS011;16389;50.126;8.450;2024-01-30T13:03:55;23.77;;;18.83;;
29412;SDS011;16389;50.126;8.450;2024-01-30T13:06:22;20.60;;;18.33;;
29412;SDS011;16389;50.126;8.450;2024-01-30T13:08:48;21.08;;;18.98;;
29412;SDS011;16389;50.126;8.450;2024-01-30T13:11:13;20.88;;;18.65;;
29412;SDS011;16389;50.126;8.450;2024-01-30T13:13:39;22.77;;;19.67;;
29412;SDS011;16389;50.126;8.450;2024-01-30T13:16:05;19.98;;;17.63;;
29412;SDS011;16389;50.126;8.450;2024-01-30T13:18:31;19.35;;;17.30;;
29412;SDS011;16389;50.126;8.450;2024-01-30T13:20:56;18.83;;;16.98;;
29412;SDS011;16389;50.126;8.450;2024-01-30T13:23:22;19.55;;;17.65;;
29412;SDS011;16389;50.126;8.450;2024-01-30T13:25:48;22.25;;;19.05;;
29412;SDS011;16389;50.126;8.450;2024-01-30T13:28:14;18.52;;;16.77;;
29412;SDS011;16389;50.126;8.450;2024-01-30T13:30:39;18.17;;;16.33;;
29412;SDS011;16389;50.126;8.450;2024-01-30T13:33:05;18.60;;;16.88;;
29412;SDS011;16389;50.126;8.450;2024-01-30T13:35:30;20.38;;;17.98;;
29412;SDS011;16389;50.126;8.450;2024-01-30T13:37:56;20.02;;;17.80;;
29412;SDS011;16389;50.126;8.450;2024-01-30T13:40:22;18.63;;;16.92;;
29412;SDS011;16389;50.126;8.450;2024-01-30T13:42:47;18.55;;;16.67;;
29412;SDS011;16389;50.126;8.450;2024-01-30T13:45:13;24.63;;;16.60;;
29412;SDS011;16389;50.126;8.450;2024-01-30T13:47:40;18.58;;;16.60;;
29412;SDS011;16389;50.126;8.450;2024-01-30T13:50:05;17.98;;;16.17;;
29412;SDS011;16389;50.126;8.450;2024-01-30T13:52:31;22.23;;;16.70;;
29412;SDS011;16389;50.126;8.450;2024-01-30T13:54:57;18.80;;;16.55;;
29412;SDS011;16389;50.126;8.450;2024-01-30T13:57:22;18.30;;;16.02;;
29412;SDS011;16389;50.126;8.450;2024-01-30T13:59:48;18.25;;;16.65;;
29412;SDS011;16389;50.126;8.450;2024-01-30T14:02:14;20.40;;;15.55;;
29412;SDS011;16389;50.126;8.450;2024-01-30T14:04:39;18.48;;;16.67;;
29412;SDS011;16389;50.126;8.450;2024-01-30T14:07:05;16.60;;;15.05;;
29412;SDS011;16389;50.126;8.450;2024-01-30T14:09:34;18.00;;;16.08;;
29412;SDS011;16389;50.126;8.450;2024-01-30T14:12:00;19.85;;;17.25;;
29412;SDS011;16389;50.126;8.450;2024-01-30T14:14:26;18.90;;;17.00;;
29412;SDS011;16389;50.126;8.450;2024-01-30T14:16:52;19.23;;;17.02;;
29412;SDS011;16389;50.126;8.450;2024-01-30T14:19:17;18.65;;;16.70;;
29412;SDS011;16389;50.126;8.450;2024-01-30T14:21:43;20.08;;;15.57;;
29412;SDS011;16389;50.126;8.450;2024-01-30T14:24:08;17.48;;;15.82;;